Terminal Aerodrome Forecast
Issued by NWS

Home | Current Version | Previous Version | Text Only | Print | Product List | Glossary On
Versions: 1 2 3 4 5 6 7 8 9 10 11 12 13 14 15 16 17 18 19
000
FTUS43 KAPX 271231 AAA
TAFPLN
TAF AMD
KPLN 271231Z 2713/2812 VRB03KT P6SM SHRA OVC090
     FM271400 11005KT P6SM SHRA OVC070
     FM271600 10006KT P6SM SHRA BKN050
     FM271800 09008KT P6SM SHRA OVC025
     FM280000 08010KT 3SM SHRA BR OVC008
     FM280400 15006KT 1SM SHRA BR OVC003
     FM280700 22006KT 1SM SHRA BR BKN003=

USA.gov is the U.S. government's official web portal to all federal, state and local government web resources and services.